sensor_id;sensor_type;location;lat;lon;timestamp;temperature;humidity
74792;SHT30;63319;46.046;17.802;2024-02-16T00:00:54;7.31;70.93
74792;SHT30;63319;46.046;17.802;2024-02-16T00:03:57;7.25;71.84
74792;SHT30;63319;46.046;17.802;2024-02-16T00:07:00;7.45;70.18
74792;SHT30;63319;46.046;17.802;2024-02-16T00:10:04;7.21;71.33
74792;SHT30;63319;46.046;17.802;2024-02-16T00:13:07;7.10;71.76
74792;SHT30;63319;46.046;17.802;2024-02-16T00:16:10;7.14;71.45
74792;SHT30;63319;46.046;17.802;2024-02-16T00:19:13;7.18;71.65
74792;SHT30;63319;46.046;17.802;2024-02-16T00:22:16;7.08;71.73
74792;SHT30;63319;46.046;17.802;2024-02-16T00:25:19;7.03;72.30
74792;SHT30;63319;46.046;17.802;2024-02-16T00:28:23;6.87;72.61
74792;SHT30;63319;46.046;17.802;2024-02-16T00:31:26;6.89;72.39
74792;SHT30;63319;46.046;17.802;2024-02-16T00:34:29;6.83;72.92
74792;SHT30;63319;46.046;17.802;2024-02-16T00:37:32;6.94;73.00
74792;SHT30;63319;46.046;17.802;2024-02-16T00:40:35;6.90;72.56
74792;SHT30;63319;46.046;17.802;2024-02-16T00:43:39;6.72;73.01
74792;SHT30;63319;46.046;17.802;2024-02-16T00:46:42;6.66;73.83
74792;SHT30;63319;46.046;17.802;2024-02-16T00:49:45;6.75;73.29
74792;SHT30;63319;46.046;17.802;2024-02-16T00:52:48;6.83;73.12
74792;SHT30;63319;46.046;17.802;2024-02-16T00:55:51;6.69;73.21
74792;SHT30;63319;46.046;17.802;2024-02-16T00:58:54;6.68;73.48
74792;SHT30;63319;46.046;17.802;2024-02-16T01:01:57;6.62;73.78
74792;SHT30;63319;46.046;17.802;2024-02-16T01:05:00;6.54;74.06
74792;SHT30;63319;46.046;17.802;2024-02-16T01:08:06;6.39;74.70
74792;SHT30;63319;46.046;17.802;2024-02-16T01:11:09;6.18;75.54
74792;SHT30;63319;46.046;17.802;2024-02-16T01:14:12;6.33;75.01
74792;SHT30;63319;46.046;17.802;2024-02-16T01:17:16;6.18;75.40
74792;SHT30;63319;46.046;17.802;2024-02-16T01:20:19;6.36;74.96
74792;SHT30;63319;46.046;17.802;2024-02-16T01:23:23;6.20;75.03
74792;SHT30;63319;46.046;17.802;2024-02-16T01:26:27;6.17;75.24
74792;SHT30;63319;46.046;17.802;2024-02-16T01:29:30;6.04;75.76
74792;SHT30;63319;46.046;17.802;2024-02-16T01:32:35;6.11;76.10
74792;SHT30;63319;46.046;17.802;2024-02-16T01:35:38;6.12;75.49
74792;SHT30;63319;46.046;17.802;2024-02-16T01:38:42;6.38;74.89
74792;SHT30;63319;46.046;17.802;2024-02-16T01:41:45;6.35;74.68
74792;SHT30;63319;46.046;17.802;2024-02-16T01:44:48;6.52;73.78
74792;SHT30;63319;46.046;17.802;2024-02-16T01:47:51;6.43;74.27
74792;SHT30;63319;46.046;17.802;2024-02-16T01:50:54;6.25;74.47
74792;SHT30;63319;46.046;17.802;2024-02-16T01:53:58;6.48;74.82
74792;SHT30;63319;46.046;17.802;2024-02-16T01:57:01;6.43;74.81
74792;SHT30;63319;46.046;17.802;2024-02-16T02:00:05;6.49;74.19
74792;SHT30;63319;46.046;17.802;2024-02-16T02:03:10;6.28;74.39
74792;SHT30;63319;46.046;17.802;2024-02-16T02:06:14;6.33;75.00
74792;SHT30;63319;46.046;17.802;2024-02-16T02:09:18;6.32;74.09
74792;SHT30;63319;46.046;17.802;2024-02-16T02:12:22;6.29;74.79
74792;SHT30;63319;46.046;17.802;2024-02-16T02:15:25;6.25;74.90
74792;SHT30;63319;46.046;17.802;2024-02-16T02:18:28;6.32;74.38
74792;SHT30;63319;46.046;17.802;2024-02-16T02:21:31;6.25;74.36
74792;SHT30;63319;46.046;17.802;2024-02-16T02:24:35;6.07;75.22
74792;SHT30;63319;46.046;17.802;2024-02-16T02:27:38;6.00;76.15
74792;SHT30;63319;46.046;17.802;2024-02-16T02:30:42;6.24;75.36
74792;SHT30;63319;46.046;17.802;2024-02-16T02:33:47;6.41;75.46
74792;SHT30;63319;46.046;17.802;2024-02-16T02:36:50;6.41;74.12
74792;SHT30;63319;46.046;17.802;2024-02-16T02:39:53;5.95;75.64
74792;SHT30;63319;46.046;17.802;2024-02-16T02:42:57;5.87;76.58
74792;SHT30;63319;46.046;17.802;2024-02-16T02:46:00;5.86;76.26
74792;SHT30;63319;46.046;17.802;2024-02-16T02:49:03;6.02;76.04
74792;SHT30;63319;46.046;17.802;2024-02-16T02:52:06;5.93;75.41
74792;SHT30;63319;46.046;17.802;2024-02-16T02:55:10;6.05;75.40
74792;SHT30;63319;46.046;17.802;2024-02-16T02:58:13;5.89;75.69
74792;SHT30;63319;46.046;17.802;2024-02-16T03:01:16;5.83;76.16
74792;SHT30;63319;46.046;17.802;2024-02-16T03:04:22;5.86;75.97
74792;SHT30;63319;46.046;17.802;2024-02-16T03:07:25;5.98;75.55
74792;SHT30;63319;46.046;17.802;2024-02-16T03:10:29;5.93;76.22
74792;SHT30;63319;46.046;17.802;2024-02-16T03:13:37;6.05;75.31
74792;SHT30;63319;46.046;17.802;2024-02-16T03:16:40;6.22;74.47
74792;SHT30;63319;46.046;17.802;2024-02-16T03:19:44;6.10;74.62
74792;SHT30;63319;46.046;17.802;2024-02-16T03:22:48;6.28;74.01
74792;SHT30;63319;46.046;17.802;2024-02-16T03:25:52;6.11;74.36
74792;SHT30;63319;46.046;17.802;2024-02-16T03:28:55;6.22;73.83
74792;SHT30;63319;46.046;17.802;2024-02-16T03:31:59;6.04;74.54
74792;SHT30;63319;46.046;17.802;2024-02-16T03:35:02;6.01;74.83
74792;SHT30;63319;46.046;17.802;2024-02-16T03:38:05;6.05;74.37
74792;SHT30;63319;46.046;17.802;2024-02-16T03:41:12;5.93;74.67
74792;SHT30;63319;46.046;17.802;2024-02-16T03:44:17;6.05;74.27
74792;SHT30;63319;46.046;17.802;2024-02-16T03:47:19;5.93;74.81
74792;SHT30;63319;46.046;17.802;2024-02-16T03:50:22;5.89;75.04
74792;SHT30;63319;46.046;17.802;2024-02-16T03:53:25;5.86;75.10
74792;SHT30;63319;46.046;17.802;2024-02-16T03:56:28;5.86;74.70
74792;SHT30;63319;46.046;17.802;2024-02-16T03:59:31;5.74;75.32
74792;SHT30;63319;46.046;17.802;2024-02-16T04:02:34;5.81;75.04
74792;SHT30;63319;46.046;17.802;2024-02-16T04:05:38;5.71;75.46
74792;SHT30;63319;46.046;17.802;2024-02-16T04:08:41;5.97;74.41
74792;SHT30;63319;46.046;17.802;2024-02-16T04:11:46;5.84;74.80
74792;SHT30;63319;46.046;17.802;2024-02-16T04:14:49;5.89;74.74
74792;SHT30;63319;46.046;17.802;2024-02-16T04:17:52;5.81;75.39
74792;SHT30;63319;46.046;17.802;2024-02-16T04:20:56;5.93;75.16
74792;SHT30;63319;46.046;17.802;2024-02-16T04:23:59;5.95;75.06
74792;SHT30;63319;46.046;17.802;2024-02-16T04:27:02;5.83;74.60
74792;SHT30;63319;46.046;17.802;2024-02-16T04:30:10;5.81;74.80
74792;SHT30;63319;46.046;17.802;2024-02-16T04:33:13;5.90;74.52
74792;SHT30;63319;46.046;17.802;2024-02-16T04:36:16;5.81;75.50
74792;SHT30;63319;46.046;17.802;2024-02-16T04:39:20;5.80;74.81
74792;SHT30;63319;46.046;17.802;2024-02-16T04:42:22;5.77;74.58
74792;SHT30;63319;46.046;17.802;2024-02-16T04:45:25;5.87;74.26
74792;SHT30;63319;46.046;17.802;2024-02-16T04:48:29;5.91;73.90
74792;SHT30;63319;46.046;17.802;2024-02-16T04:51:34;5.97;74.17
74792;SHT30;63319;46.046;17.802;2024-02-16T04:54:37;6.01;73.61
74792;SHT30;63319;46.046;17.802;2024-02-16T04:57:43;5.94;74.15
74792;SHT30;63319;46.046;17.802;2024-02-16T05:00:46;5.86;73.96
74792;SHT30;63319;46.046;17.802;2024-02-16T05:03:50;5.97;73.65
74792;SHT30;63319;46.046;17.802;2024-02-16T05:06:53;5.91;73.91
74792;SHT30;63319;46.046;17.802;2024-02-16T05:10:00;6.00;73.66
74792;SHT30;63319;46.046;17.802;2024-02-16T05:13:04;6.07;73.29
74792;SHT30;63319;46.046;17.802;2024-02-16T05:16:11;6.02;73.24
74792;SHT30;63319;46.046;17.802;2024-02-16T05:19:14;6.10;72.86
74792;SHT30;63319;46.046;17.802;2024-02-16T05:22:17;6.17;72.22
74792;SHT30;63319;46.046;17.802;2024-02-16T05:25:24;6.21;71.80
74792;SHT30;63319;46.046;17.802;2024-02-16T05:28:27;6.14;72.25
74792;SHT30;63319;46.046;17.802;2024-02-16T05:31:32;6.14;72.32
74792;SHT30;63319;46.046;17.802;2024-02-16T05:34:35;6.11;72.25
74792;SHT30;63319;46.046;17.802;2024-02-16T05:40:52;6.07;72.05
74792;SHT30;63319;46.046;17.802;2024-02-16T05:43:59;6.10;72.18
74792;SHT30;63319;46.046;17.802;2024-02-16T05:47:03;6.04;72.27
74792;SHT30;63319;46.046;17.802;2024-02-16T05:50:06;6.02;72.09
74792;SHT30;63319;46.046;17.802;2024-02-16T05:53:10;6.04;71.98
74792;SHT30;63319;46.046;17.802;2024-02-16T05:56:13;5.97;72.17
74792;SHT30;63319;46.046;17.802;2024-02-16T05:59:16;6.01;72.10
74792;SHT30;63319;46.046;17.802;2024-02-16T06:02:19;6.08;71.99
74792;SHT30;63319;46.046;17.802;2024-02-16T06:05:22;6.00;72.13
74792;SHT30;63319;46.046;17.802;2024-02-16T06:08:25;6.07;72.31
74792;SHT30;63319;46.046;17.802;2024-02-16T06:11:31;6.15;71.80
74792;SHT30;63319;46.046;17.802;2024-02-16T06:14:34;6.14;72.05
74792;SHT30;63319;46.046;17.802;2024-02-16T06:17:39;6.15;72.11
74792;SHT30;63319;46.046;17.802;2024-02-16T06:20:43;6.11;72.46
74792;SHT30;63319;46.046;17.802;2024-02-16T06:23:46;6.12;72.41
74792;SHT30;63319;46.046;17.802;2024-02-16T06:26:49;6.04;72.99
74792;SHT30;63319;46.046;17.802;2024-02-16T06:29:57;6.04;73.22
74792;SHT30;63319;46.046;17.802;2024-02-16T06:32:59;6.17;72.54
74792;SHT30;63319;46.046;17.802;2024-02-16T06:36:04;6.25;72.80
74792;SHT30;63319;46.046;17.802;2024-02-16T06:39:07;6.22;72.59
74792;SHT30;63319;46.046;17.802;2024-02-16T06:42:10;6.52;71.83
74792;SHT30;63319;46.046;17.802;2024-02-16T06:45:15;6.45;71.83
74792;SHT30;63319;46.046;17.802;2024-02-16T06:48:18;6.62;72.01
74792;SHT30;63319;46.046;17.802;2024-02-16T06:51:21;6.80;71.42
74792;SHT30;63319;46.046;17.802;2024-02-16T06:54:24;6.80;71.33
74792;SHT30;63319;46.046;17.802;2024-02-16T06:57:28;6.94;71.32
74792;SHT30;63319;46.046;17.802;2024-02-16T07:00:32;7.03;70.82
74792;SHT30;63319;46.046;17.802;2024-02-16T07:03:36;7.25;70.49
74792;SHT30;63319;46.046;17.802;2024-02-16T07:06:40;7.25;69.73
74792;SHT30;63319;46.046;17.802;2024-02-16T07:09:44;7.35;70.22
74792;SHT30;63319;46.046;17.802;2024-02-16T07:12:48;7.51;70.45
74792;SHT30;63319;46.046;17.802;2024-02-16T07:15:51;7.83;69.01
74792;SHT30;63319;46.046;17.802;2024-02-16T07:18:55;9.77;63.42
74792;SHT30;63319;46.046;17.802;2024-02-16T07:21:59;10.60;60.33
74792;SHT30;63319;46.046;17.802;2024-02-16T07:25:03;10.95;59.26
74792;SHT30;63319;46.046;17.802;2024-02-16T07:28:08;11.40;58.51
74792;SHT30;63319;46.046;17.802;2024-02-16T07:31:12;11.66;56.83
74792;SHT30;63319;46.046;17.802;2024-02-16T07:34:17;12.21;56.03
74792;SHT30;63319;46.046;17.802;2024-02-16T07:37:20;13.79;51.66
74792;SHT30;63319;46.046;17.802;2024-02-16T07:40:24;14.71;49.35
74792;SHT30;63319;46.046;17.802;2024-02-16T07:43:27;15.41;47.55
74792;SHT30;63319;46.046;17.802;2024-02-16T07:46:31;16.25;45.37
74792;SHT30;63319;46.046;17.802;2024-02-16T07:49:38;15.79;45.68
74792;SHT30;63319;46.046;17.802;2024-02-16T07:52:43;17.16;44.16
74792;SHT30;63319;46.046;17.802;2024-02-16T07:55:46;18.25;40.52
74792;SHT30;63319;46.046;17.802;2024-02-16T07:58:50;18.14;40.65
74792;SHT30;63319;46.046;17.802;2024-02-16T08:01:54;17.84;41.66
74792;SHT30;63319;46.046;17.802;2024-02-16T08:05:00;17.80;41.50
74792;SHT30;63319;46.046;17.802;2024-02-16T08:08:03;18.65;40.18
74792;SHT30;63319;46.046;17.802;2024-02-16T08:11:07;18.63;39.97
74792;SHT30;63319;46.046;17.802;2024-02-16T08:14:10;19.06;38.80
74792;SHT30;63319;46.046;17.802;2024-02-16T08:17:13;18.70;39.48
74792;SHT30;63319;46.046;17.802;2024-02-16T08:20:23;19.20;39.11
74792;SHT30;63319;46.046;17.802;2024-02-16T08:23:26;19.36;38.51
74792;SHT30;63319;46.046;17.802;2024-02-16T08:26:30;19.41;38.71
74792;SHT30;63319;46.046;17.802;2024-02-16T08:29:34;19.44;38.84
74792;SHT30;63319;46.046;17.802;2024-02-16T08:32:39;19.52;38.35
74792;SHT30;63319;46.046;17.802;2024-02-16T08:35:43;19.50;38.76
74792;SHT30;63319;46.046;17.802;2024-02-16T08:38:46;19.71;38.37
74792;SHT30;63319;46.046;17.802;2024-02-16T08:41:52;20.02;37.44
74792;SHT30;63319;46.046;17.802;2024-02-16T08:44:56;19.96;37.59
74792;SHT30;63319;46.046;17.802;2024-02-16T08:48:03;20.64;36.75
74792;SHT30;63319;46.046;17.802;2024-02-16T08:51:07;20.60;36.46
74792;SHT30;63319;46.046;17.802;2024-02-16T08:54:11;20.67;36.57
74792;SHT30;63319;46.046;17.802;2024-02-16T08:57:14;21.39;35.95
74792;SHT30;63319;46.046;17.802;2024-02-16T09:00:20;20.60;36.38
74792;SHT30;63319;46.046;17.802;2024-02-16T09:03:24;20.63;36.24
74792;SHT30;63319;46.046;17.802;2024-02-16T09:06:28;21.20;35.37
74792;SHT30;63319;46.046;17.802;2024-02-16T09:09:31;21.29;35.46
74792;SHT30;63319;46.046;17.802;2024-02-16T09:12:34;21.18;34.93
74792;SHT30;63319;46.046;17.802;2024-02-16T09:15:39;21.20;35.81
74792;SHT30;63319;46.046;17.802;2024-02-16T09:18:45;21.88;35.02
74792;SHT30;63319;46.046;17.802;2024-02-16T09:21:51;21.39;34.96
74792;SHT30;63319;46.046;17.802;2024-02-16T09:25:00;21.49;35.50
74792;SHT30;63319;46.046;17.802;2024-02-16T09:28:04;21.53;35.36
74792;SHT30;63319;46.046;17.802;2024-02-16T09:31:15;21.56;34.97
74792;SHT30;63319;46.046;17.802;2024-02-16T09:34:19;21.44;36.26
74792;SHT30;63319;46.046;17.802;2024-02-16T09:37:23;21.42;35.67
74792;SHT30;63319;46.046;17.802;2024-02-16T09:40:26;20.78;35.42
74792;SHT30;63319;46.046;17.802;2024-02-16T09:43:30;21.87;34.46
74792;SHT30;63319;46.046;17.802;2024-02-16T09:46:33;21.68;34.75
74792;SHT30;63319;46.046;17.802;2024-02-16T09:49:37;22.38;34.05
74792;SHT30;63319;46.046;17.802;2024-02-16T09:52:48;23.52;32.91
74792;SHT30;63319;46.046;17.802;2024-02-16T09:55:52;22.80;32.40
74792;SHT30;63319;46.046;17.802;2024-02-16T09:58:56;22.42;32.95
74792;SHT30;63319;46.046;17.802;2024-02-16T10:02:03;21.68;34.67
74792;SHT30;63319;46.046;17.802;2024-02-16T10:05:19;22.21;33.26
74792;SHT30;63319;46.046;17.802;2024-02-16T10:08:22;22.67;32.97
74792;SHT30;63319;46.046;17.802;2024-02-16T10:11:26;22.25;33.00
74792;SHT30;63319;46.046;17.802;2024-02-16T10:14:54;22.09;33.91
74792;SHT30;63319;46.046;17.802;2024-02-16T10:18:03;22.43;33.08
74792;SHT30;63319;46.046;17.802;2024-02-16T10:21:07;22.98;32.66
74792;SHT30;63319;46.046;17.802;2024-02-16T10:24:11;22.60;32.87
74792;SHT30;63319;46.046;17.802;2024-02-16T10:27:17;22.16;33.47
74792;SHT30;63319;46.046;17.802;2024-02-16T10:30:22;22.00;34.02
74792;SHT30;63319;46.046;17.802;2024-02-16T10:33:27;22.39;33.17
74792;SHT30;63319;46.046;17.802;2024-02-16T10:36:35;21.91;34.32
74792;SHT30;63319;46.046;17.802;2024-02-16T10:39:40;22.89;33.52
74792;SHT30;63319;46.046;17.802;2024-02-16T10:42:45;22.89;32.78
74792;SHT30;63319;46.046;17.802;2024-02-16T10:45:49;23.10;32.53
74792;SHT30;63319;46.046;17.802;2024-02-16T10:48:56;22.77;33.45
74792;SHT30;63319;46.046;17.802;2024-02-16T10:51:59;23.15;32.77
74792;SHT30;63319;46.046;17.802;2024-02-16T10:55:05;22.94;32.59
74792;SHT30;63319;46.046;17.802;2024-02-16T10:58:11;22.91;32.81
74792;SHT30;63319;46.046;17.802;2024-02-16T11:01:15;23.41;33.31
74792;SHT30;63319;46.046;17.802;2024-02-16T11:04:18;23.35;32.92
74792;SHT30;63319;46.046;17.802;2024-02-16T11:07:38;23.15;32.53
74792;SHT30;63319;46.046;17.802;2024-02-16T11:10:57;23.19;32.99
74792;SHT30;63319;46.046;17.802;2024-02-16T11:14:00;23.76;32.40
74792;SHT30;63319;46.046;17.802;2024-02-16T11:17:10;23.80;31.90
74792;SHT30;63319;46.046;17.802;2024-02-16T11:20:14;23.12;32.67
74792;SHT30;63319;46.046;17.802;2024-02-16T11:23:16;23.08;32.29
74792;SHT30;63319;46.046;17.802;2024-02-16T11:26:22;23.12;33.39
74792;SHT30;63319;46.046;17.802;2024-02-16T11:29:25;22.91;33.60
74792;SHT30;63319;46.046;17.802;2024-02-16T11:32:32;22.94;33.65
74792;SHT30;63319;46.046;17.802;2024-02-16T11:35:37;23.46;33.22
74792;SHT30;63319;46.046;17.802;2024-02-16T11:38:51;24.34;31.73
74792;SHT30;63319;46.046;17.802;2024-02-16T11:42:05;24.85;30.66
74792;SHT30;63319;46.046;17.802;2024-02-16T11:45:10;23.85;31.11
74792;SHT30;63319;46.046;17.802;2024-02-16T11:48:22;24.55;31.64
74792;SHT30;63319;46.046;17.802;2024-02-16T11:51:25;23.79;32.20
74792;SHT30;63319;46.046;17.802;2024-02-16T11:54:29;24.44;30.97
74792;SHT30;63319;46.046;17.802;2024-02-16T11:57:33;23.85;31.76
74792;SHT30;63319;46.046;17.802;2024-02-16T12:00:37;24.00;31.84
74792;SHT30;63319;46.046;17.802;2024-02-16T12:03:41;23.92;31.94
74792;SHT30;63319;46.046;17.802;2024-02-16T12:06:44;23.52;32.21
74792;SHT30;63319;46.046;17.802;2024-02-16T12:10:03;23.39;32.67
74792;SHT30;63319;46.046;17.802;2024-02-16T12:13:10;23.61;32.31
74792;SHT30;63319;46.046;17.802;2024-02-16T12:16:13;24.35;31.59
74792;SHT30;63319;46.046;17.802;2024-02-16T12:19:19;24.69;30.86
74792;SHT30;63319;46.046;17.802;2024-02-16T12:22:24;24.96;31.03
74792;SHT30;63319;46.046;17.802;2024-02-16T12:25:28;24.35;31.49
74792;SHT30;63319;46.046;17.802;2024-02-16T12:28:31;24.04;32.33
74792;SHT30;63319;46.046;17.802;2024-02-16T12:31:35;24.52;31.49
74792;SHT30;63319;46.046;17.802;2024-02-16T12:34:40;24.31;31.71
74792;SHT30;63319;46.046;17.802;2024-02-16T12:37:43;24.27;31.83
74792;SHT30;63319;46.046;17.802;2024-02-16T12:40:46;24.52;32.02
74792;SHT30;63319;46.046;17.802;2024-02-16T12:43:49;24.68;30.84
74792;SHT30;63319;46.046;17.802;2024-02-16T12:46:53;25.06;30.46
74792;SHT30;63319;46.046;17.802;2024-02-16T12:49:56;24.38;31.86
74792;SHT30;63319;46.046;17.802;2024-02-16T12:53:01;24.51;31.65
74792;SHT30;63319;46.046;17.802;2024-02-16T12:56:07;24.91;31.29
74792;SHT30;63319;46.046;17.802;2024-02-16T12:59:11;24.55;31.95
74792;SHT30;63319;46.046;17.802;2024-02-16T13:02:14;24.00;32.19
74792;SHT30;63319;46.046;17.802;2024-02-16T13:05:18;24.41;32.15
74792;SHT30;63319;46.046;17.802;2024-02-16T13:08:21;24.50;32.23
74792;SHT30;63319;46.046;17.802;2024-02-16T13:11:24;24.20;32.09
74792;SHT30;63319;46.046;17.802;2024-02-16T13:14:28;24.41;32.12
74792;SHT30;63319;46.046;17.802;2024-02-16T13:17:31;24.14;32.27
74792;SHT30;63319;46.046;17.802;2024-02-16T13:20:37;24.44;32.19
74792;SHT30;63319;46.046;17.802;2024-02-16T13:23:40;23.45;33.48
74792;SHT30;63319;46.046;17.802;2024-02-16T13:26:44;23.73;32.82
74792;SHT30;63319;46.046;17.802;2024-02-16T13:29:47;23.73;32.88
74792;SHT30;63319;46.046;17.802;2024-02-16T13:32:50;24.37;32.31
74792;SHT30;63319;46.046;17.802;2024-02-16T13:35:53;24.95;31.70
74792;SHT30;63319;46.046;17.802;2024-02-16T13:38:58;25.03;31.46
74792;SHT30;63319;46.046;17.802;2024-02-16T13:42:01;24.14;33.01
74792;SHT30;63319;46.046;17.802;2024-02-16T13:45:04;24.37;32.23
74792;SHT30;63319;46.046;17.802;2024-02-16T13:48:09;23.17;33.79
74792;SHT30;63319;46.046;17.802;2024-02-16T13:51:12;22.81;34.57
74792;SHT30;63319;46.046;17.802;2024-02-16T13:54:15;22.12;35.59
74792;SHT30;63319;46.046;17.802;2024-02-16T13:57:20;20.98;37.57
74792;SHT30;63319;46.046;17.802;2024-02-16T14:00:23;19.94;39.52
74792;SHT30;63319;46.046;17.802;2024-02-16T14:03:26;19.71;39.90
74792;SHT30;63319;46.046;17.802;2024-02-16T14:06:29;19.92;39.63
74792;SHT30;63319;46.046;17.802;2024-02-16T14:09:36;19.44;40.36
74792;SHT30;63319;46.046;17.802;2024-02-16T14:12:39;18.97;41.57
74792;SHT30;63319;46.046;17.802;2024-02-16T14:15:42;18.83;42.44
74792;SHT30;63319;46.046;17.802;2024-02-16T14:18:45;18.66;41.54
74792;SHT30;63319;46.046;17.802;2024-02-16T14:21:50;19.27;41.04
74792;SHT30;63319;46.046;17.802;2024-02-16T14:24:54;19.51;40.85
74792;SHT30;63319;46.046;17.802;2024-02-16T14:27:56;18.83;41.73
74792;SHT30;63319;46.046;17.802;2024-02-16T14:31:01;18.48;42.79
74792;SHT30;63319;46.046;17.802;2024-02-16T14:34:05;18.59;42.16
74792;SHT30;63319;46.046;17.802;2024-02-16T14:37:09;18.97;41.88
74792;SHT30;63319;46.046;17.802;2024-02-16T14:40:12;18.58;42.07
74792;SHT30;63319;46.046;17.802;2024-02-16T14:43:15;17.22;45.44
74792;SHT30;63319;46.046;17.802;2024-02-16T14:46:18;16.52;46.69
74792;SHT30;63319;46.046;17.802;2024-02-16T14:49:22;16.33;47.23
74792;SHT30;63319;46.046;17.802;2024-02-16T14:52:27;15.98;47.88
74792;SHT30;63319;46.046;17.802;2024-02-16T14:55:30;15.91;48.99
74792;SHT30;63319;46.046;17.802;2024-02-16T14:58:33;15.75;49.61
74792;SHT30;63319;46.046;17.802;2024-02-16T15:01:37;15.50;49.75
74792;SHT30;63319;46.046;17.802;2024-02-16T15:04:40;15.33;50.34
74792;SHT30;63319;46.046;17.802;2024-02-16T15:07:43;15.31;50.26
74792;SHT30;63319;46.046;17.802;2024-02-16T15:10:46;15.27;50.71
74792;SHT30;63319;46.046;17.802;2024-02-16T15:13:50;15.11;51.20
74792;SHT30;63319;46.046;17.802;2024-02-16T15:16:52;14.89;51.81
74792;SHT30;63319;46.046;17.802;2024-02-16T15:19:56;14.89;51.84
74792;SHT30;63319;46.046;17.802;2024-02-16T15:22:58;14.89;51.92
74792;SHT30;63319;46.046;17.802;2024-02-16T15:26:01;14.71;52.27
74792;SHT30;63319;46.046;17.802;2024-02-16T15:29:08;14.60;52.87
74792;SHT30;63319;46.046;17.802;2024-02-16T15:32:11;14.51;53.04
74792;SHT30;63319;46.046;17.802;2024-02-16T15:35:14;14.42;53.10
74792;SHT30;63319;46.046;17.802;2024-02-16T15:38:17;14.46;53.23
74792;SHT30;63319;46.046;17.802;2024-02-16T15:41:20;14.30;53.97
74792;SHT30;63319;46.046;17.802;2024-02-16T15:44:23;14.28;54.26
74792;SHT30;63319;46.046;17.802;2024-02-16T15:47:25;14.09;55.12
74792;SHT30;63319;46.046;17.802;2024-02-16T15:50:28;14.00;55.69
74792;SHT30;63319;46.046;17.802;2024-02-16T15:53:33;14.00;56.17
74792;SHT30;63319;46.046;17.802;2024-02-16T15:56:36;13.70;57.19
74792;SHT30;63319;46.046;17.802;2024-02-16T15:59:39;13.39;58.44
74792;SHT30;63319;46.046;17.802;2024-02-16T16:02:42;13.49;58.71
74792;SHT30;63319;46.046;17.802;2024-02-16T16:05:45;13.17;59.58
74792;SHT30;63319;46.046;17.802;2024-02-16T16:08:49;13.14;59.32
74792;SHT30;63319;46.046;17.802;2024-02-16T16:11:52;13.01;59.81
74792;SHT30;63319;46.046;17.802;2024-02-16T16:14:55;13.00;59.54
74792;SHT30;63319;46.046;17.802;2024-02-16T16:17:58;13.18;58.79
74792;SHT30;63319;46.046;17.802;2024-02-16T16:21:01;12.98;58.94
74792;SHT30;63319;46.046;17.802;2024-02-16T16:24:05;12.81;59.18
74792;SHT30;63319;46.046;17.802;2024-02-16T16:27:10;12.79;58.88
74792;SHT30;63319;46.046;17.802;2024-02-16T16:30:15;12.59;59.22
74792;SHT30;63319;46.046;17.802;2024-02-16T16:33:18;12.60;58.65
74792;SHT30;63319;46.046;17.802;2024-02-16T16:36:22;12.35;59.13
74792;SHT30;63319;46.046;17.802;2024-02-16T16:39:25;12.14;59.84
74792;SHT30;63319;46.046;17.802;2024-02-16T16:42:28;11.97;60.00
74792;SHT30;63319;46.046;17.802;2024-02-16T16:45:32;12.12;58.83
74792;SHT30;63319;46.046;17.802;2024-02-16T16:48:34;11.97;59.54
74792;SHT30;63319;46.046;17.802;2024-02-16T16:51:38;11.62;60.55
74792;SHT30;63319;46.046;17.802;2024-02-16T16:54:42;11.73;59.88
74792;SHT30;63319;46.046;17.802;2024-02-16T16:57:45;11.94;58.38
74792;SHT30;63319;46.046;17.802;2024-02-16T17:00:49;11.59;59.24
74792;SHT30;63319;46.046;17.802;2024-02-16T17:03:52;11.74;58.48
74792;SHT30;63319;46.046;17.802;2024-02-16T17:06:55;11.74;58.09
74792;SHT30;63319;46.046;17.802;2024-02-16T17:09:58;11.43;59.25
74792;SHT30;63319;46.046;17.802;2024-02-16T17:13:01;11.25;59.72
74792;SHT30;63319;46.046;17.802;2024-02-16T17:16:05;11.11;60.00
74792;SHT30;63319;46.046;17.802;2024-02-16T17:19:08;11.09;60.01
74792;SHT30;63319;46.046;17.802;2024-02-16T17:22:12;11.25;59.80
74792;SHT30;63319;46.046;17.802;2024-02-16T17:25:16;11.23;59.26
74792;SHT30;63319;46.046;17.802;2024-02-16T17:28:19;10.75;60.41
74792;SHT30;63319;46.046;17.802;2024-02-16T17:31:22;10.92;59.59
74792;SHT30;63319;46.046;17.802;2024-02-16T17:34:26;10.95;58.83
74792;SHT30;63319;46.046;17.802;2024-02-16T17:37:29;10.91;58.44
74792;SHT30;63319;46.046;17.802;2024-02-16T17:40:32;10.71;59.26
74792;SHT30;63319;46.046;17.802;2024-02-16T17:43:35;10.72;59.15
74792;SHT30;63319;46.046;17.802;2024-02-16T17:46:39;10.74;58.69
74792;SHT30;63319;46.046;17.802;2024-02-16T17:49:43;10.81;58.54
74792;SHT30;63319;46.046;17.802;2024-02-16T17:52:47;10.53;58.80
74792;SHT30;63319;46.046;17.802;2024-02-16T17:55:49;10.68;58.60
74792;SHT30;63319;46.046;17.802;2024-02-16T17:58:53;10.64;57.86
74792;SHT30;63319;46.046;17.802;2024-02-16T18:01:56;10.64;57.65
74792;SHT30;63319;46.046;17.802;2024-02-16T18:04:59;10.64;57.33
74792;SHT30;63319;46.046;17.802;2024-02-16T18:08:03;10.56;56.86
74792;SHT30;63319;46.046;17.802;2024-02-16T18:11:06;10.60;56.43
74792;SHT30;63319;46.046;17.802;2024-02-16T18:14:09;10.48;56.65
74792;SHT30;63319;46.046;17.802;2024-02-16T18:17:13;10.43;56.61
74792;SHT30;63319;46.046;17.802;2024-02-16T18:20:16;10.26;57.27
74792;SHT30;63319;46.046;17.802;2024-02-16T18:23:19;10.16;57.55
74792;SHT30;63319;46.046;17.802;2024-02-16T18:26:22;10.08;57.60
74792;SHT30;63319;46.046;17.802;2024-02-16T18:29:25;10.13;56.95
74792;SHT30;63319;46.046;17.802;2024-02-16T18:32:28;10.21;56.61
74792;SHT30;63319;46.046;17.802;2024-02-16T18:35:31;10.17;56.78
74792;SHT30;63319;46.046;17.802;2024-02-16T18:38:34;10.00;57.99
74792;SHT30;63319;46.046;17.802;2024-02-16T18:41:38;9.98;57.53
74792;SHT30;63319;46.046;17.802;2024-02-16T18:44:42;9.86;57.77
74792;SHT30;63319;46.046;17.802;2024-02-16T18:47:46;9.89;57.85
74792;SHT30;63319;46.046;17.802;2024-02-16T18:50:49;9.71;58.17
74792;SHT30;63319;46.046;17.802;2024-02-16T18:53:53;9.74;58.20
74792;SHT30;63319;46.046;17.802;2024-02-16T18:56:56;9.63;58.52
74792;SHT30;63319;46.046;17.802;2024-02-16T18:59:59;9.47;59.09
74792;SHT30;63319;46.046;17.802;2024-02-16T19:03:02;9.24;59.30
74792;SHT30;63319;46.046;17.802;2024-02-16T19:06:05;9.28;59.07
74792;SHT30;63319;46.046;17.802;2024-02-16T19:09:09;9.41;58.25
74792;SHT30;63319;46.046;17.802;2024-02-16T19:12:12;9.33;58.40
74792;SHT30;63319;46.046;17.802;2024-02-16T19:15:15;9.14;58.30